sensor_id;sensor_type;location;lat;lon;timestamp;pressure;altitude;pressure_sealevel;temperature;humidity
57248;BME280;55809;46.618;10.764;2023-03-23T00:00:09;92844.69;;;9.51;64.53
57248;BME280;55809;46.618;10.764;2023-03-23T00:02:37;92822.84;;;9.31;64.97
57248;BME280;55809;46.618;10.764;2023-03-23T00:05:08;92836.31;;;9.38;65.41
57248;BME280;55809;46.618;10.764;2023-03-23T00:07:45;92843.97;;;9.39;65.09
57248;BME280;55809;46.618;10.764;2023-03-23T00:10:18;92851.66;;;9.37;65.01
57248;BME280;55809;46.618;10.764;2023-03-23T00:12:46;92844.00;;;9.32;65.38
57248;BME280;55809;46.618;10.764;2023-03-23T00:15:16;92843.28;;;9.28;64.90
57248;BME280;55809;46.618;10.764;2023-03-23T00:17:44;92844.44;;;9.24;65.32
57248;BME280;55809;46.618;10.764;2023-03-23T00:20:12;92811.81;;;9.04;65.22
57248;BME280;55809;46.618;10.764;2023-03-23T00:22:45;92839.84;;;9.13;65.82
57248;BME280;55809;46.618;10.764;2023-03-23T00:25:13;92847.88;;;9.24;65.21
57248;BME280;55809;46.618;10.764;2023-03-23T00:27:43;92840.94;;;9.27;65.18
57248;BME280;55809;46.618;10.764;2023-03-23T00:30:11;92841.31;;;9.36;64.77
57248;BME280;55809;46.618;10.764;2023-03-23T00:32:39;92849.75;;;9.42;64.44
57248;BME280;55809;46.618;10.764;2023-03-23T00:35:08;92840.13;;;9.37;64.55
57248;BME280;55809;46.618;10.764;2023-03-23T00:37:38;92839.38;;;9.36;64.76
57248;BME280;55809;46.618;10.764;2023-03-23T00:40:12;92835.97;;;9.25;65.24
57248;BME280;55809;46.618;10.764;2023-03-23T00:42:40;92827.94;;;9.11;65.88
57248;BME280;55809;46.618;10.764;2023-03-23T00:45:10;92806.88;;;8.88;65.96
57248;BME280;55809;46.618;10.764;2023-03-23T00:47:39;92829.53;;;8.98;66.75
57248;BME280;55809;46.618;10.764;2023-03-23T00:50:08;92823.03;;;8.95;67.06
57248;BME280;55809;46.618;10.764;2023-03-23T00:52:39;92828.00;;;8.97;67.32
57248;BME280;55809;46.618;10.764;2023-03-23T00:55:08;92823.34;;;9.04;66.98
57248;BME280;55809;46.618;10.764;2023-03-23T00:57:41;92816.00;;;9.15;66.89
57248;BME280;55809;46.618;10.764;2023-03-23T01:00:13;92793.72;;;9.08;66.43
57248;BME280;55809;46.618;10.764;2023-03-23T01:02:43;92814.44;;;9.25;66.73
57248;BME280;55809;46.618;10.764;2023-03-23T01:05:12;92820.59;;;9.22;66.68
57248;BME280;55809;46.618;10.764;2023-03-23T01:07:41;92810.59;;;9.23;65.77
57248;BME280;55809;46.618;10.764;2023-03-23T01:10:11;92812.09;;;9.27;65.27
57248;BME280;55809;46.618;10.764;2023-03-23T01:12:44;92804.84;;;9.13;65.67
57248;BME280;55809;46.618;10.764;2023-03-23T01:15:21;92805.69;;;9.00;66.53
57248;BME280;55809;46.618;10.764;2023-03-23T01:17:49;92738.53;;;8.67;65.97
57248;BME280;55809;46.618;10.764;2023-03-23T01:20:17;92807.50;;;9.24;65.41
57248;BME280;55809;46.618;10.764;2023-03-23T01:22:48;92800.56;;;9.27;65.55
57248;BME280;55809;46.618;10.764;2023-03-23T01:25:16;92801.31;;;9.27;65.37
57248;BME280;55809;46.618;10.764;2023-03-23T01:27:51;92792.44;;;9.34;64.99
57248;BME280;55809;46.618;10.764;2023-03-23T01:30:19;92798.97;;;9.36;64.86
57248;BME280;55809;46.618;10.764;2023-03-23T01:32:47;92793.97;;;9.38;64.59
57248;BME280;55809;46.618;10.764;2023-03-23T01:35:18;92797.00;;;9.44;64.28
57248;BME280;55809;46.618;10.764;2023-03-23T01:37:49;92798.56;;;9.42;64.19
57248;BME280;55809;46.618;10.764;2023-03-23T01:40:17;92788.16;;;9.44;64.58
57248;BME280;55809;46.618;10.764;2023-03-23T01:42:44;92780.09;;;9.40;64.16
57248;BME280;55809;46.618;10.764;2023-03-23T01:45:29;92783.53;;;9.48;64.20
57248;BME280;55809;46.618;10.764;2023-03-23T01:48:05;92790.44;;;9.49;63.92
57248;BME280;55809;46.618;10.764;2023-03-23T01:50:38;92757.81;;;9.32;63.86
57248;BME280;55809;46.618;10.764;2023-03-23T01:53:11;92782.31;;;9.56;64.14
57248;BME280;55809;46.618;10.764;2023-03-23T01:55:41;92790.00;;;9.54;63.95
57248;BME280;55809;46.618;10.764;2023-03-23T01:58:17;92782.34;;;9.49;64.50
57248;BME280;55809;46.618;10.764;2023-03-23T02:00:49;92792.38;;;9.48;64.47
57248;BME280;55809;46.618;10.764;2023-03-23T02:03:17;92788.88;;;9.51;64.71
57248;BME280;55809;46.618;10.764;2023-03-23T02:05:50;92788.47;;;9.53;64.41
57248;BME280;55809;46.618;10.764;2023-03-23T02:08:19;92760.50;;;9.32;64.50
57248;BME280;55809;46.618;10.764;2023-03-23T02:10:49;92787.34;;;9.47;64.11
57248;BME280;55809;46.618;10.764;2023-03-23T02:13:18;92791.59;;;9.44;63.99
57248;BME280;55809;46.618;10.764;2023-03-23T02:15:58;92783.63;;;9.30;64.41
57248;BME280;55809;46.618;10.764;2023-03-23T02:18:54;92778.31;;;9.15;64.82
57248;BME280;55809;46.618;10.764;2023-03-23T02:25:07;92775.63;;;9.12;65.04
57248;BME280;55809;46.618;10.764;2023-03-23T02:28:26;92770.19;;;9.23;64.81
57248;BME280;55809;46.618;10.764;2023-03-23T02:31:50;92766.69;;;9.29;64.21
57248;BME280;55809;46.618;10.764;2023-03-23T02:34:38;92767.06;;;9.31;64.49
57248;BME280;55809;46.618;10.764;2023-03-23T02:37:13;92762.50;;;9.18;65.02
57248;BME280;55809;46.618;10.764;2023-03-23T02:39:45;92764.47;;;9.10;65.50
57248;BME280;55809;46.618;10.764;2023-03-23T02:42:18;92763.75;;;9.06;65.68
57248;BME280;55809;46.618;10.764;2023-03-23T02:44:50;92758.28;;;9.16;65.29
57248;BME280;55809;46.618;10.764;2023-03-23T02:47:23;92762.09;;;9.26;64.84
57248;BME280;55809;46.618;10.764;2023-03-23T02:49:55;92759.81;;;9.25;64.45
57248;BME280;55809;46.618;10.764;2023-03-23T02:52:27;92765.16;;;9.28;64.06
57248;BME280;55809;46.618;10.764;2023-03-23T02:55:00;92762.47;;;9.28;63.77
57248;BME280;55809;46.618;10.764;2023-03-23T02:57:29;92757.44;;;9.30;63.62
57248;BME280;55809;46.618;10.764;2023-03-23T03:00:01;92743.66;;;9.18;63.66
57248;BME280;55809;46.618;10.764;2023-03-23T03:02:34;92756.31;;;9.24;63.61
57248;BME280;55809;46.618;10.764;2023-03-23T03:05:11;92753.25;;;9.26;63.99
57248;BME280;55809;46.618;10.764;2023-03-23T03:07:49;92749.00;;;9.28;64.24
57248;BME280;55809;46.618;10.764;2023-03-23T03:10:23;92755.16;;;9.29;64.34
57248;BME280;55809;46.618;10.764;2023-03-23T03:12:59;92752.06;;;9.27;64.23
57248;BME280;55809;46.618;10.764;2023-03-23T03:15:34;92742.44;;;9.29;64.41
57248;BME280;55809;46.618;10.764;2023-03-23T03:18:10;92745.09;;;9.36;63.62
57248;BME280;55809;46.618;10.764;2023-03-23T03:20:50;92745.81;;;9.44;63.51
57248;BME280;55809;46.618;10.764;2023-03-23T03:23:25;92741.94;;;9.49;63.13
57248;BME280;55809;46.618;10.764;2023-03-23T03:25:55;92750.81;;;9.46;63.17
57248;BME280;55809;46.618;10.764;2023-03-23T03:28:25;92752.00;;;9.37;63.51
57248;BME280;55809;46.618;10.764;2023-03-23T03:30:56;92748.22;;;9.28;64.41
57248;BME280;55809;46.618;10.764;2023-03-23T03:33:28;92753.31;;;9.15;64.41
57248;BME280;55809;46.618;10.764;2023-03-23T03:36:03;92753.78;;;8.96;65.09
57248;BME280;55809;46.618;10.764;2023-03-23T03:38:41;92748.84;;;8.83;65.63
57248;BME280;55809;46.618;10.764;2023-03-23T03:41:10;92754.63;;;8.82;65.84
57248;BME280;55809;46.618;10.764;2023-03-23T03:43:39;92750.00;;;8.82;65.81
57248;BME280;55809;46.618;10.764;2023-03-23T03:46:07;92758.44;;;8.88;65.38
57248;BME280;55809;46.618;10.764;2023-03-23T03:48:36;92758.78;;;8.93;65.62
57248;BME280;55809;46.618;10.764;2023-03-23T03:51:06;92759.97;;;8.92;65.59
57248;BME280;55809;46.618;10.764;2023-03-23T03:53:37;92746.53;;;8.85;65.45
57248;BME280;55809;46.618;10.764;2023-03-23T03:56:06;92754.56;;;8.96;65.16
57248;BME280;55809;46.618;10.764;2023-03-23T03:58:34;92766.84;;;9.01;64.80
57248;BME280;55809;46.618;10.764;2023-03-23T04:01:03;92764.16;;;8.97;65.02
57248;BME280;55809;46.618;10.764;2023-03-23T04:03:31;92729.66;;;8.74;65.11
57248;BME280;55809;46.618;10.764;2023-03-23T04:05:59;92763.00;;;8.98;64.95
57248;BME280;55809;46.618;10.764;2023-03-23T04:08:30;92756.81;;;9.01;64.69
57248;BME280;55809;46.618;10.764;2023-03-23T04:10:58;92755.66;;;9.06;64.62
57248;BME280;55809;46.618;10.764;2023-03-23T04:13:26;92756.41;;;9.10;64.24
57248;BME280;55809;46.618;10.764;2023-03-23T04:15:54;92757.53;;;9.16;64.38
57248;BME280;55809;46.618;10.764;2023-03-23T04:18:22;92755.22;;;9.14;64.01
57248;BME280;55809;46.618;10.764;2023-03-23T04:20:53;92734.19;;;8.91;63.93
57248;BME280;55809;46.618;10.764;2023-03-23T04:23:30;92772.19;;;9.08;64.29
57248;BME280;55809;46.618;10.764;2023-03-23T04:26:00;92771.06;;;9.02;64.86
57248;BME280;55809;46.618;10.764;2023-03-23T04:28:30;92777.63;;;8.97;64.75
57248;BME280;55809;46.618;10.764;2023-03-23T04:30:59;92782.28;;;8.89;65.33
57248;BME280;55809;46.618;10.764;2023-03-23T04:33:29;92749.69;;;8.62;65.35
57248;BME280;55809;46.618;10.764;2023-03-23T04:36:00;92773.47;;;8.82;65.70
57248;BME280;55809;46.618;10.764;2023-03-23T04:38:34;92773.47;;;8.75;66.04
57248;BME280;55809;46.618;10.764;2023-03-23T04:41:02;92775.81;;;8.73;66.02
57248;BME280;55809;46.618;10.764;2023-03-23T04:43:30;92772.34;;;8.68;66.26
57248;BME280;55809;46.618;10.764;2023-03-23T04:46:08;92770.47;;;8.51;66.12
57248;BME280;55809;46.618;10.764;2023-03-23T04:48:36;92769.34;;;8.38;66.80
57248;BME280;55809;46.618;10.764;2023-03-23T04:51:05;92783.53;;;8.45;66.96
57248;BME280;55809;46.618;10.764;2023-03-23T04:53:34;92782.78;;;8.56;66.47
57248;BME280;55809;46.618;10.764;2023-03-23T04:56:05;92785.06;;;8.61;65.76
57248;BME280;55809;46.618;10.764;2023-03-23T04:58:32;92724.78;;;8.22;65.93
57248;BME280;55809;46.618;10.764;2023-03-23T05:01:01;92791.19;;;8.65;65.74
57248;BME280;55809;46.618;10.764;2023-03-23T05:03:30;92772.38;;;8.58;65.35
57248;BME280;55809;46.618;10.764;2023-03-23T05:06:01;92786.19;;;8.71;65.52
57248;BME280;55809;46.618;10.764;2023-03-23T05:08:30;92791.56;;;8.71;65.28
57248;BME280;55809;46.618;10.764;2023-03-23T05:11:05;92752.81;;;8.50;65.46
57248;BME280;55809;46.618;10.764;2023-03-23T05:13:33;92785.41;;;8.70;65.28
57248;BME280;55809;46.618;10.764;2023-03-23T05:16:03;92782.31;;;8.72;65.54
57248;BME280;55809;46.618;10.764;2023-03-23T05:18:31;92788.50;;;8.65;65.71
57248;BME280;55809;46.618;10.764;2023-03-23T05:21:00;92765.13;;;8.44;65.48
57248;BME280;55809;46.618;10.764;2023-03-23T05:23:28;92790.81;;;8.63;65.44
57248;BME280;55809;46.618;10.764;2023-03-23T05:25:58;92789.28;;;8.62;65.50
57248;BME280;55809;46.618;10.764;2023-03-23T05:28:30;92787.34;;;8.66;65.57
57248;BME280;55809;46.618;10.764;2023-03-23T05:30:58;92763.16;;;8.52;65.31
57248;BME280;55809;46.618;10.764;2023-03-23T05:33:25;92791.56;;;8.67;65.44
57248;BME280;55809;46.618;10.764;2023-03-23T05:35:52;92795.78;;;8.72;65.24
57248;BME280;55809;46.618;10.764;2023-03-23T05:38:19;92795.38;;;8.77;65.07
57248;BME280;55809;46.618;10.764;2023-03-23T05:40:47;92779.66;;;8.68;65.25
57248;BME280;55809;46.618;10.764;2023-03-23T05:43:14;92806.19;;;8.66;65.54
57248;BME280;55809;46.618;10.764;2023-03-23T05:45:43;92796.94;;;8.67;65.59
57248;BME280;55809;46.618;10.764;2023-03-23T05:48:10;92808.44;;;8.75;65.12
57248;BME280;55809;46.618;10.764;2023-03-23T05:50:37;92810.03;;;8.72;65.42
57248;BME280;55809;46.618;10.764;2023-03-23T05:53:05;92803.84;;;8.68;65.64
57248;BME280;55809;46.618;10.764;2023-03-23T05:55:31;92778.97;;;8.46;65.58
57248;BME280;55809;46.618;10.764;2023-03-23T05:57:58;92808.09;;;8.69;65.48
57248;BME280;55809;46.618;10.764;2023-03-23T06:00:26;92814.63;;;8.68;65.94
57248;BME280;55809;46.618;10.764;2023-03-23T06:02:57;92816.16;;;8.73;65.59
57248;BME280;55809;46.618;10.764;2023-03-23T06:05:24;92814.59;;;8.75;65.46
57248;BME280;55809;46.618;10.764;2023-03-23T06:07:51;92826.91;;;8.76;65.63
57248;BME280;55809;46.618;10.764;2023-03-23T06:10:19;92823.44;;;8.79;65.35
57248;BME280;55809;46.618;10.764;2023-03-23T06:12:46;92821.53;;;8.76;65.91
57248;BME280;55809;46.618;10.764;2023-03-23T06:15:13;92823.03;;;8.84;65.18
57248;BME280;55809;46.618;10.764;2023-03-23T06:17:40;92818.41;;;8.85;65.61
57248;BME280;55809;46.618;10.764;2023-03-23T06:20:10;92818.03;;;8.90;64.95
57248;BME280;55809;46.618;10.764;2023-03-23T06:22:37;92825.69;;;8.99;64.93
57248;BME280;55809;46.618;10.764;2023-03-23T06:25:05;92817.22;;;9.00;65.57
57248;BME280;55809;46.618;10.764;2023-03-23T06:27:32;92818.72;;;9.05;65.39
57248;BME280;55809;46.618;10.764;2023-03-23T06:30:02;92762.34;;;8.76;64.79
57248;BME280;55809;46.618;10.764;2023-03-23T06:32:31;92809.81;;;9.22;64.23
57248;BME280;55809;46.618;10.764;2023-03-23T06:35:11;92759.22;;;8.88;64.31
57248;BME280;55809;46.618;10.764;2023-03-23T06:37:40;92819.38;;;9.34;63.82
57248;BME280;55809;46.618;10.764;2023-03-23T06:40:09;92818.59;;;9.33;64.17
57248;BME280;55809;46.618;10.764;2023-03-23T06:42:37;92815.50;;;9.42;63.95
57248;BME280;55809;46.618;10.764;2023-03-23T06:45:06;92803.72;;;9.77;63.09
57248;BME280;55809;46.618;10.764;2023-03-23T06:47:35;92800.97;;;9.84;63.29
57248;BME280;55809;46.618;10.764;2023-03-23T06:50:06;92797.91;;;9.82;62.93
57248;BME280;55809;46.618;10.764;2023-03-23T06:52:52;92789.81;;;9.82;62.63
57248;BME280;55809;46.618;10.764;2023-03-23T06:55:20;92796.00;;;9.79;62.61
57248;BME280;55809;46.618;10.764;2023-03-23T06:57:48;92795.28;;;9.72;62.55
57248;BME280;55809;46.618;10.764;2023-03-23T07:00:18;92800.22;;;9.80;62.55
57248;BME280;55809;46.618;10.764;2023-03-23T07:02:49;92796.41;;;9.78;62.52
57248;BME280;55809;46.618;10.764;2023-03-23T07:05:17;92786.44;;;9.71;62.83
57248;BME280;55809;46.618;10.764;2023-03-23T07:07:51;92799.84;;;9.82;62.65
57248;BME280;55809;46.618;10.764;2023-03-23T07:10:22;92786.41;;;9.75;62.82
57248;BME280;55809;46.618;10.764;2023-03-23T07:12:50;92809.84;;;9.85;63.09
57248;BME280;55809;46.618;10.764;2023-03-23T07:15:23;92812.47;;;9.92;63.51
57248;BME280;55809;46.618;10.764;2023-03-23T07:17:51;92816.66;;;10.00;62.89
57248;BME280;55809;46.618;10.764;2023-03-23T07:20:19;92820.47;;;10.03;62.91
57248;BME280;55809;46.618;10.764;2023-03-23T07:22:49;92832.44;;;10.02;62.54
57248;BME280;55809;46.618;10.764;2023-03-23T07:25:17;92836.97;;;10.12;62.52
57248;BME280;55809;46.618;10.764;2023-03-23T07:27:46;92838.91;;;10.12;62.20
57248;BME280;55809;46.618;10.764;2023-03-23T07:30:15;92826.31;;;9.98;61.90
57248;BME280;55809;46.618;10.764;2023-03-23T07:32:44;92843.94;;;10.06;62.08
57248;BME280;55809;46.618;10.764;2023-03-23T07:35:11;92846.28;;;10.04;62.34
57248;BME280;55809;46.618;10.764;2023-03-23T07:37:43;92847.38;;;10.10;62.50
57248;BME280;55809;46.618;10.764;2023-03-23T07:40:18;92802.91;;;9.80;63.50
57248;BME280;55809;46.618;10.764;2023-03-23T07:42:52;92856.97;;;10.18;63.41
57248;BME280;55809;46.618;10.764;2023-03-23T07:45:21;92864.66;;;10.23;63.76
57248;BME280;55809;46.618;10.764;2023-03-23T07:47:49;92868.16;;;10.65;63.17
57248;BME280;55809;46.618;10.764;2023-03-23T07:50:20;92820.91;;;11.18;60.59
57248;BME280;55809;46.618;10.764;2023-03-23T07:52:54;92856.59;;;11.98;58.65
57248;BME280;55809;46.618;10.764;2023-03-23T07:55:25;92817.00;;;12.35;57.45
57248;BME280;55809;46.618;10.764;2023-03-23T07:57:54;92832.66;;;12.47;56.71
57248;BME280;55809;46.618;10.764;2023-03-23T08:00:25;92854.47;;;12.36;56.88
57248;BME280;55809;46.618;10.764;2023-03-23T08:03:04;92822.59;;;11.97;57.07
57248;BME280;55809;46.618;10.764;2023-03-23T08:05:34;92847.38;;;11.95;57.78
57248;BME280;55809;46.618;10.764;2023-03-23T08:08:03;92851.75;;;11.86;58.45
57248;BME280;55809;46.618;10.764;2023-03-23T08:10:33;92846.00;;;11.80;58.68
57248;BME280;55809;46.618;10.764;2023-03-23T08:13:01;92845.47;;;11.92;58.33
57248;BME280;55809;46.618;10.764;2023-03-23T08:15:32;92823.28;;;12.05;57.58
57248;BME280;55809;46.618;10.764;2023-03-23T08:18:01;92848.94;;;12.67;56.47
57248;BME280;55809;46.618;10.764;2023-03-23T08:20:30;92795.34;;;12.78;54.16
57248;BME280;55809;46.618;10.764;2023-03-23T08:23:02;92847.16;;;14.16;52.28
57248;BME280;55809;46.618;10.764;2023-03-23T08:25:37;92805.78;;;14.77;50.09
57248;BME280;55809;46.618;10.764;2023-03-23T08:28:06;92810.09;;;14.75;49.14
57248;BME280;55809;46.618;10.764;2023-03-23T08:30:35;92840.06;;;14.88;49.49
57248;BME280;55809;46.618;10.764;2023-03-23T08:33:06;92836.34;;;14.65;49.38
57248;BME280;55809;46.618;10.764;2023-03-23T08:35:36;92846.69;;;14.70;49.41
57248;BME280;55809;46.618;10.764;2023-03-23T08:38:04;92841.09;;;14.45;49.30
57248;BME280;55809;46.618;10.764;2023-03-23T08:40:34;92846.06;;;14.46;48.94
57248;BME280;55809;46.618;10.764;2023-03-23T08:43:02;92811.88;;;14.32;49.14
57248;BME280;55809;46.618;10.764;2023-03-23T08:45:32;92846.34;;;14.68;49.24
57248;BME280;55809;46.618;10.764;2023-03-23T08:48:00;92819.38;;;14.61;49.34
57248;BME280;55809;46.618;10.764;2023-03-23T08:50:29;92844.66;;;14.74;48.56
57248;BME280;55809;46.618;10.764;2023-03-23T08:52:56;92839.22;;;14.74;48.36
57248;BME280;55809;46.618;10.764;2023-03-23T08:55:25;92850.34;;;14.64;49.18
57248;BME280;55809;46.618;10.764;2023-03-23T08:57:54;92847.88;;;14.53;48.96
57248;BME280;55809;46.618;10.764;2023-03-23T09:00:23;92816.03;;;14.21;49.61
57248;BME280;55809;46.618;10.764;2023-03-23T09:02:53;92832.84;;;14.16;50.39
57248;BME280;55809;46.618;10.764;2023-03-23T09:05:25;92841.81;;;14.13;50.52
57248;BME280;55809;46.618;10.764;2023-03-23T09:07:56;92837.13;;;13.97;50.56
57248;BME280;55809;46.618;10.764;2023-03-23T09:10:26;92840.19;;;13.99;50.80
57248;BME280;55809;46.618;10.764;2023-03-23T09:12:58;92799.16;;;13.60;50.03
57248;BME280;55809;46.618;10.764;2023-03-23T09:15:26;92798.97;;;13.51;50.76
57248;BME280;55809;46.618;10.764;2023-03-23T09:17:53;92821.38;;;13.72;51.00
57248;BME280;55809;46.618;10.764;2023-03-23T09:20:35;92840.34;;;13.92;51.86
57248;BME280;55809;46.618;10.764;2023-03-23T09:23:04;92850.25;;;13.82;50.48
57248;BME280;55809;46.618;10.764;2023-03-23T09:25:33;92837.88;;;13.81;50.61
57248;BME280;55809;46.618;10.764;2023-03-23T09:28:08;92814.56;;;13.83;50.83
57248;BME280;55809;46.618;10.764;2023-03-23T09:30:37;92824.06;;;14.08;50.29
57248;BME280;55809;46.618;10.764;2023-03-23T09:33:07;92804.84;;;14.68;49.33
57248;BME280;55809;46.618;10.764;2023-03-23T09:35:38;92771.78;;;15.28;47.91
57248;BME280;55809;46.618;10.764;2023-03-23T09:38:09;92823.72;;;16.26;47.20
57248;BME280;55809;46.618;10.764;2023-03-23T09:40:44;92820.78;;;16.08;47.53
57248;BME280;55809;46.618;10.764;2023-03-23T09:43:33;92826.44;;;16.13;46.97
57248;BME280;55809;46.618;10.764;2023-03-23T09:46:15;92828.19;;;16.33;46.39
57248;BME280;55809;46.618;10.764;2023-03-23T09:48:51;92821.81;;;16.61;46.51
57248;BME280;55809;46.618;10.764;2023-03-23T09:51:30;92815.94;;;16.76;45.50
57248;BME280;55809;46.618;10.764;2023-03-23T09:54:03;92820.09;;;17.02;46.20
57248;BME280;55809;46.618;10.764;2023-03-23T09:56:33;92815.69;;;17.18;45.21
57248;BME280;55809;46.618;10.764;2023-03-23T09:59:12;92810.25;;;17.18;44.33
57248;BME280;55809;46.618;10.764;2023-03-23T10:01:45;92808.56;;;17.20;44.62
57248;BME280;55809;46.618;10.764;2023-03-23T10:04:23;92809.72;;;17.32;43.91
57248;BME280;55809;46.618;10.764;2023-03-23T10:06:57;92765.50;;;17.15;45.01
57248;BME280;55809;46.618;10.764;2023-03-23T10:09:28;92814.16;;;17.61;44.59
57248;BME280;55809;46.618;10.764;2023-03-23T10:12:00;92798.38;;;17.77;44.37
57248;BME280;55809;46.618;10.764;2023-03-23T10:14:54;92788.56;;;17.89;44.24
57248;BME280;55809;46.618;10.764;2023-03-23T10:17:28;92741.38;;;17.57;43.63
57248;BME280;55809;46.618;10.764;2023-03-23T10:20:09;92770.78;;;17.85;42.83
57248;BME280;55809;46.618;10.764;2023-03-23T10:22:48;92756.25;;;17.88;42.61
57248;BME280;55809;46.618;10.764;2023-03-23T10:25:19;92760.22;;;17.96;43.04
57248;BME280;55809;46.618;10.764;2023-03-23T10:27:54;92744.44;;;17.91;42.95
57248;BME280;55809;46.618;10.764;2023-03-23T10:30:31;92748.28;;;18.12;41.58
57248;BME280;55809;46.618;10.764;2023-03-23T10:33:03;92752.63;;;17.91;41.99
57248;BME280;55809;46.618;10.764;2023-03-23T10:35:38;92730.88;;;17.78;43.54
57248;BME280;55809;46.618;10.764;2023-03-23T10:38:12;92740.63;;;17.66;43.08
57248;BME280;55809;46.618;10.764;2023-03-23T10:40:49;92748.34;;;17.80;43.90
57248;BME280;55809;46.618;10.764;2023-03-23T10:43:18;92735.19;;;17.66;44.38
57248;BME280;55809;46.618;10.764;2023-03-23T10:45:56;92727.69;;;17.48;46.07
57248;BME280;55809;46.618;10.764;2023-03-23T10:48:30;92734.56;;;17.62;44.45
57248;BME280;55809;46.618;10.764;2023-03-23T10:51:02;92732.72;;;17.81;44.16
57248;BME280;55809;46.618;10.764;2023-03-23T10:53:33;92713.13;;;17.51;45.29
57248;BME280;55809;46.618;10.764;2023-03-23T10:56:03;92731.81;;;17.84;44.83
57248;BME280;55809;46.618;10.764;2023-03-23T10:58:33;92731.28;;;18.08;44.89
57248;BME280;55809;46.618;10.764;2023-03-23T11:01:19;92729.84;;;18.43;43.82
57248;BME280;55809;46.618;10.764;2023-03-23T11:03:51;92735.91;;;18.47;43.25
57248;BME280;55809;46.618;10.764;2023-03-23T11:06:22;92727.88;;;18.44;42.21
57248;BME280;55809;46.618;10.764;2023-03-23T11:08:54;92726.16;;;18.28;43.60
57248;BME280;55809;46.618;10.764;2023-03-23T11:11:26;92698.06;;;18.18;45.80
57248;BME280;55809;46.618;10.764;2023-03-23T11:14:02;92733.13;;;18.11;46.18
57248;BME280;55809;46.618;10.764;2023-03-23T11:16:34;92730.53;;;17.76;44.75
57248;BME280;55809;46.618;10.764;2023-03-23T11:19:13;92732.91;;;17.65;45.93
57248;BME280;55809;46.618;10.764;2023-03-23T11:21:47;92714.91;;;18.08;44.92
57248;BME280;55809;46.618;10.764;2023-03-23T11:24:18;92722.00;;;18.05;43.37
57248;BME280;55809;46.618;10.764;2023-03-23T11:26:46;92715.97;;;18.19;43.44
57248;BME280;55809;46.618;10.764;2023-03-23T11:29:19;92718.78;;;17.88;43.79
57248;BME280;55809;46.618;10.764;2023-03-23T11:31:53;92711.06;;;17.33;44.16
57248;BME280;55809;46.618;10.764;2023-03-23T11:34:34;92710.50;;;17.17;45.07
57248;BME280;55809;46.618;10.764;2023-03-23T11:37:05;92694.75;;;17.11;44.98
57248;BME280;55809;46.618;10.764;2023-03-23T11:39:48;92675.72;;;16.99;44.89
57248;BME280;55809;46.618;10.764;2023-03-23T11:42:20;92701.31;;;17.23;45.21
57248;BME280;55809;46.618;10.764;2023-03-23T11:44:54;92700.25;;;17.52;45.45
57248;BME280;55809;46.618;10.764;2023-03-23T11:47:32;92677.03;;;17.47;43.94
57248;BME280;55809;46.618;10.764;2023-03-23T11:50:08;92692.16;;;17.70;44.92
57248;BME280;55809;46.618;10.764;2023-03-23T11:52:43;92690.41;;;17.54;45.66
57248;BME280;55809;46.618;10.764;2023-03-23T11:55:19;92681.38;;;17.35;45.06
57248;BME280;55809;46.618;10.764;2023-03-23T11:57:51;92677.66;;;17.51;43.34
57248;BME280;55809;46.618;10.764;2023-03-23T12:00:23;92670.81;;;17.78;43.21
57248;BME280;55809;46.618;10.764;2023-03-23T12:05:48;92647.63;;;17.92;44.01
57248;BME280;55809;46.618;10.764;2023-03-23T12:08:29;92652.31;;;17.82;42.19
57248;BME280;55809;46.618;10.764;2023-03-23T12:11:05;92641.44;;;17.51;42.98
57248;BME280;55809;46.618;10.764;2023-03-23T12:13:45;92645.97;;;17.45;44.36
57248;BME280;55809;46.618;10.764;2023-03-23T12:16:31;92636.22;;;17.44;43.84
57248;BME280;55809;46.618;10.764;2023-03-23T12:19:10;92647.00;;;17.38;43.80
57248;BME280;55809;46.618;10.764;2023-03-23T12:21:51;92641.56;;;17.16;44.11
57248;BME280;55809;46.618;10.764;2023-03-23T12:24:33;92635.91;;;17.32;44.62
57248;BME280;55809;46.618;10.764;2023-03-23T12:27:11;92638.72;;;17.20;43.94
57248;BME280;55809;46.618;10.764;2023-03-23T12:29:57;92643.22;;;17.14;44.37
57248;BME280;55809;46.618;10.764;2023-03-23T12:33:18;92632.72;;;17.03;44.09
57248;BME280;55809;46.618;10.764;2023-03-23T12:35:57;92631.56;;;17.13;44.25
57248;BME280;55809;46.618;10.764;2023-03-23T12:38:43;92633.22;;;17.10;45.19
57248;BME280;55809;46.618;10.764;2023-03-23T12:41:16;92605.88;;;16.92;44.35
57248;BME280;55809;46.618;10.764;2023-03-23T12:43:51;92623.97;;;17.08;43.91
57248;BME280;55809;46.618;10.764;2023-03-23T12:46:47;92614.66;;;16.96;42.76
57248;BME280;55809;46.618;10.764;2023-03-23T12:49:21;92607.03;;;16.91;43.38
57248;BME280;55809;46.618;10.764;2023-03-23T12:51:55;92609.63;;;16.85;43.17
57248;BME280;55809;46.618;10.764;2023-03-23T12:54:29;92602.00;;;16.80;43.40
57248;BME280;55809;46.618;10.764;2023-03-23T12:57:00;92564.09;;;16.51;44.80
57248;BME280;55809;46.618;10.764;2023-03-23T12:59:34;92606.75;;;16.89;44.38
57248;BME280;55809;46.618;10.764;2023-03-23T13:02:10;92595.97;;;16.85;44.97
57248;BME280;55809;46.618;10.764;2023-03-23T13:04:43;92589.13;;;16.81;44.79
57248;BME280;55809;46.618;10.764;2023-03-23T13:07:16;92586.41;;;16.81;44.75
57248;BME280;55809;46.618;10.764;2023-03-23T13:09:50;92539.41;;;16.46;44.39
57248;BME280;55809;46.618;10.764;2023-03-23T13:12:19;92578.16;;;16.72;45.36
57248;BME280;55809;46.618;10.764;2023-03-23T13:14:54;92571.63;;;16.69;44.68
57248;BME280;55809;46.618;10.764;2023-03-23T13:17:29;92565.72;;;16.71;44.10
57248;BME280;55809;46.618;10.764;2023-03-23T13:22:51;92562.13;;;16.52;43.98
57248;BME280;55809;46.618;10.764;2023-03-23T13:25:42;92561.50;;;16.48;43.90
57248;BME280;55809;46.618;10.764;2023-03-23T13:28:15;92561.13;;;16.58;43.32
57248;BME280;55809;46.618;10.764;2023-03-23T13:30:53;92556.47;;;16.68;43.93